Terminal Aerodrome Forecast
Issued by NWS Grand Junction, CO

Home | Current Version | Previous Version | Text Only | Print | Product List | Glossary On
Versions: 1 2 3 4 5 6 7 8 9 10 11 12 13 14 15 16 17 18 19 20 21 22 23 24 25 26 27 28 29 30 31 32 33
000
FTUS45 KGJT 110541
TAFGJT
TAF
KGJT 110541Z 1106/1206 05006KT P6SM SCT110 BKN250
     FM110700 12008KT P6SM VCTS SCT080CB BKN150
      TEMPO 1107/1109 VRB20G30KT -TSRA BKN080CB
     FM111000 14008KT P6SM SCT110 BKN200
     FM111500 13006KT P6SM SCT110 SCT200
     FM112000 25010KT P6SM VCTS SCT080CB SCT150=

USA.gov is the U.S. government's official web portal to all federal, state and local government web resources and services.